sensor_id;sensor_type;location;lat;lon;timestamp;P1;durP1;ratioP1;P2;durP2;ratioP2
49123;SDS011;48506;48.202;16.274;2022-12-07T00:01:30;12.98;;;7.00;;
49123;SDS011;48506;48.202;16.274;2022-12-07T00:03:58;11.48;;;7.38;;
49123;SDS011;48506;48.202;16.274;2022-12-07T00:06:32;13.13;;;8.48;;
49123;SDS011;48506;48.202;16.274;2022-12-07T00:08:59;13.98;;;7.07;;
49123;SDS011;48506;48.202;16.274;2022-12-07T00:11:25;14.38;;;8.00;;
49123;SDS011;48506;48.202;16.274;2022-12-07T00:13:52;14.75;;;7.05;;
49123;SDS011;48506;48.202;16.274;2022-12-07T00:16:21;13.15;;;8.10;;
49123;SDS011;48506;48.202;16.274;2022-12-07T00:18:50;15.55;;;7.90;;
49123;SDS011;48506;48.202;16.274;2022-12-07T00:21:17;15.93;;;7.60;;
49123;SDS011;48506;48.202;16.274;2022-12-07T00:23:45;13.38;;;8.10;;
49123;SDS011;48506;48.202;16.274;2022-12-07T00:26:16;14.88;;;9.20;;
49123;SDS011;48506;48.202;16.274;2022-12-07T00:28:53;12.88;;;8.10;;
49123;SDS011;48506;48.202;16.274;2022-12-07T00:31:22;13.55;;;7.65;;
49123;SDS011;48506;48.202;16.274;2022-12-07T00:33:50;14.13;;;8.98;;
49123;SDS011;48506;48.202;16.274;2022-12-07T00:36:17;12.77;;;7.72;;
49123;SDS011;48506;48.202;16.274;2022-12-07T00:38:45;13.48;;;7.57;;
49123;SDS011;48506;48.202;16.274;2022-12-07T00:41:12;12.50;;;7.80;;
49123;SDS011;48506;48.202;16.274;2022-12-07T00:43:40;15.90;;;9.25;;
49123;SDS011;48506;48.202;16.274;2022-12-07T00:46:08;14.90;;;8.88;;
49123;SDS011;48506;48.202;16.274;2022-12-07T00:48:34;15.77;;;9.85;;
49123;SDS011;48506;48.202;16.274;2022-12-07T00:51:00;15.95;;;9.02;;
49123;SDS011;48506;48.202;16.274;2022-12-07T00:53:26;19.35;;;9.45;;
49123;SDS011;48506;48.202;16.274;2022-12-07T00:55:53;16.70;;;10.75;;
49123;SDS011;48506;48.202;16.274;2022-12-07T00:58:20;18.02;;;9.77;;
49123;SDS011;48506;48.202;16.274;2022-12-07T01:00:46;19.02;;;10.05;;
49123;SDS011;48506;48.202;16.274;2022-12-07T01:03:13;17.67;;;10.85;;
49123;SDS011;48506;48.202;16.274;2022-12-07T01:05:40;21.10;;;11.27;;
49123;SDS011;48506;48.202;16.274;2022-12-07T01:08:13;18.35;;;10.77;;
49123;SDS011;48506;48.202;16.274;2022-12-07T01:10:39;17.73;;;10.55;;
49123;SDS011;48506;48.202;16.274;2022-12-07T01:13:05;19.33;;;10.52;;
49123;SDS011;48506;48.202;16.274;2022-12-07T01:15:31;20.30;;;10.55;;
49123;SDS011;48506;48.202;16.274;2022-12-07T01:17:57;17.38;;;10.20;;
49123;SDS011;48506;48.202;16.274;2022-12-07T01:20:23;20.52;;;11.45;;
49123;SDS011;48506;48.202;16.274;2022-12-07T01:22:49;19.65;;;10.80;;
49123;SDS011;48506;48.202;16.274;2022-12-07T01:25:14;20.38;;;10.52;;
49123;SDS011;48506;48.202;16.274;2022-12-07T01:27:40;18.02;;;10.60;;
49123;SDS011;48506;48.202;16.274;2022-12-07T01:30:06;21.48;;;11.40;;
49123;SDS011;48506;48.202;16.274;2022-12-07T01:32:33;21.83;;;11.85;;
49123;SDS011;48506;48.202;16.274;2022-12-07T01:34:59;22.90;;;11.45;;
49123;SDS011;48506;48.202;16.274;2022-12-07T01:37:25;19.95;;;11.07;;
49123;SDS011;48506;48.202;16.274;2022-12-07T01:39:51;22.60;;;11.02;;
49123;SDS011;48506;48.202;16.274;2022-12-07T01:42:17;19.10;;;11.18;;
49123;SDS011;48506;48.202;16.274;2022-12-07T01:48:01;20.35;;;12.57;;
49123;SDS011;48506;48.202;16.274;2022-12-07T01:50:27;23.30;;;12.00;;
49123;SDS011;48506;48.202;16.274;2022-12-07T01:52:57;20.40;;;11.25;;
49123;SDS011;48506;48.202;16.274;2022-12-07T01:55:26;21.23;;;9.23;;
49123;SDS011;48506;48.202;16.274;2022-12-07T01:57:52;20.13;;;11.73;;
49123;SDS011;48506;48.202;16.274;2022-12-07T02:00:20;22.33;;;12.27;;
49123;SDS011;48506;48.202;16.274;2022-12-07T02:02:57;21.05;;;11.25;;
49123;SDS011;48506;48.202;16.274;2022-12-07T02:05:31;24.02;;;12.48;;
49123;SDS011;48506;48.202;16.274;2022-12-07T02:07:59;23.83;;;12.52;;
49123;SDS011;48506;48.202;16.274;2022-12-07T02:10:26;22.75;;;11.95;;
49123;SDS011;48506;48.202;16.274;2022-12-07T02:12:56;22.27;;;11.82;;
49123;SDS011;48506;48.202;16.274;2022-12-07T02:23:40;26.63;;;11.73;;
49123;SDS011;48506;48.202;16.274;2022-12-07T02:29:29;19.92;;;10.68;;
49123;SDS011;48506;48.202;16.274;2022-12-07T02:32:07;22.63;;;11.32;;
49123;SDS011;48506;48.202;16.274;2022-12-07T02:40:19;20.85;;;11.18;;
49123;SDS011;48506;48.202;16.274;2022-12-07T02:42:47;18.13;;;10.88;;
49123;SDS011;48506;48.202;16.274;2022-12-07T02:45:20;20.65;;;10.25;;
49123;SDS011;48506;48.202;16.274;2022-12-07T02:47:48;20.48;;;10.65;;
49123;SDS011;48506;48.202;16.274;2022-12-07T02:50:21;20.35;;;10.93;;
49123;SDS011;48506;48.202;16.274;2022-12-07T02:52:47;19.98;;;11.38;;
49123;SDS011;48506;48.202;16.274;2022-12-07T02:55:14;17.67;;;9.68;;
49123;SDS011;48506;48.202;16.274;2022-12-07T03:00:35;16.83;;;10.00;;
49123;SDS011;48506;48.202;16.274;2022-12-07T03:03:24;16.40;;;9.55;;
49123;SDS011;48506;48.202;16.274;2022-12-07T03:05:53;19.33;;;9.77;;
49123;SDS011;48506;48.202;16.274;2022-12-07T03:08:44;19.10;;;10.75;;
49123;SDS011;48506;48.202;16.274;2022-12-07T03:14:21;19.92;;;10.52;;
49123;SDS011;48506;48.202;16.274;2022-12-07T03:17:03;19.95;;;10.18;;
49123;SDS011;48506;48.202;16.274;2022-12-07T03:19:40;17.48;;;9.32;;
49123;SDS011;48506;48.202;16.274;2022-12-07T03:22:09;16.90;;;9.75;;
49123;SDS011;48506;48.202;16.274;2022-12-07T03:24:42;18.40;;;10.03;;
49123;SDS011;48506;48.202;16.274;2022-12-07T03:27:34;17.30;;;8.88;;
49123;SDS011;48506;48.202;16.274;2022-12-07T03:30:06;18.45;;;9.70;;
49123;SDS011;48506;48.202;16.274;2022-12-07T03:38:07;17.23;;;9.93;;
49123;SDS011;48506;48.202;16.274;2022-12-07T03:43:31;15.05;;;8.68;;
49123;SDS011;48506;48.202;16.274;2022-12-07T03:48:40;18.63;;;8.98;;
49123;SDS011;48506;48.202;16.274;2022-12-07T03:51:30;14.98;;;8.13;;
49123;SDS011;48506;48.202;16.274;2022-12-07T03:56:32;15.70;;;8.45;;
49123;SDS011;48506;48.202;16.274;2022-12-07T03:58:59;15.50;;;8.68;;
49123;SDS011;48506;48.202;16.274;2022-12-07T04:01:25;14.45;;;8.30;;
49123;SDS011;48506;48.202;16.274;2022-12-07T04:03:51;14.63;;;8.07;;
49123;SDS011;48506;48.202;16.274;2022-12-07T04:06:17;13.23;;;7.63;;
49123;SDS011;48506;48.202;16.274;2022-12-07T04:08:43;19.98;;;9.13;;
49123;SDS011;48506;48.202;16.274;2022-12-07T04:11:08;15.80;;;8.85;;
49123;SDS011;48506;48.202;16.274;2022-12-07T04:13:34;11.80;;;7.03;;
49123;SDS011;48506;48.202;16.274;2022-12-07T04:16:20;16.08;;;8.23;;
49123;SDS011;48506;48.202;16.274;2022-12-07T04:18:46;15.10;;;8.95;;
49123;SDS011;48506;48.202;16.274;2022-12-07T04:21:12;16.35;;;7.55;;
49123;SDS011;48506;48.202;16.274;2022-12-07T04:23:38;14.85;;;8.13;;
49123;SDS011;48506;48.202;16.274;2022-12-07T04:26:05;15.35;;;8.02;;
49123;SDS011;48506;48.202;16.274;2022-12-07T04:28:30;19.33;;;8.85;;
49123;SDS011;48506;48.202;16.274;2022-12-07T04:30:56;14.90;;;8.45;;
49123;SDS011;48506;48.202;16.274;2022-12-07T04:33:22;15.40;;;8.10;;
49123;SDS011;48506;48.202;16.274;2022-12-07T04:35:48;13.52;;;7.40;;
49123;SDS011;48506;48.202;16.274;2022-12-07T04:38:14;15.50;;;7.43;;
49123;SDS011;48506;48.202;16.274;2022-12-07T04:40:39;17.15;;;7.20;;
49123;SDS011;48506;48.202;16.274;2022-12-07T04:43:05;13.70;;;7.78;;
49123;SDS011;48506;48.202;16.274;2022-12-07T04:45:31;13.13;;;7.50;;
49123;SDS011;48506;48.202;16.274;2022-12-07T04:47:57;14.13;;;7.68;;
49123;SDS011;48506;48.202;16.274;2022-12-07T04:50:23;16.50;;;8.15;;
49123;SDS011;48506;48.202;16.274;2022-12-07T04:52:48;16.85;;;8.20;;
49123;SDS011;48506;48.202;16.274;2022-12-07T04:55:14;13.80;;;7.30;;
49123;SDS011;48506;48.202;16.274;2022-12-07T04:57:40;14.32;;;7.18;;
49123;SDS011;48506;48.202;16.274;2022-12-07T05:00:06;12.82;;;6.93;;
49123;SDS011;48506;48.202;16.274;2022-12-07T05:02:32;14.02;;;8.30;;
49123;SDS011;48506;48.202;16.274;2022-12-07T05:04:58;12.98;;;7.38;;
49123;SDS011;48506;48.202;16.274;2022-12-07T05:07:24;12.73;;;7.10;;
49123;SDS011;48506;48.202;16.274;2022-12-07T05:09:50;13.25;;;7.07;;
49123;SDS011;48506;48.202;16.274;2022-12-07T05:12:16;13.57;;;7.20;;
49123;SDS011;48506;48.202;16.274;2022-12-07T05:14:42;14.43;;;7.63;;
49123;SDS011;48506;48.202;16.274;2022-12-07T05:17:08;17.52;;;7.50;;
49123;SDS011;48506;48.202;16.274;2022-12-07T05:19:33;11.68;;;6.47;;
49123;SDS011;48506;48.202;16.274;2022-12-07T05:21:59;11.75;;;7.20;;
49123;SDS011;48506;48.202;16.274;2022-12-07T05:24:25;13.18;;;6.80;;
49123;SDS011;48506;48.202;16.274;2022-12-07T05:26:51;13.77;;;6.82;;
49123;SDS011;48506;48.202;16.274;2022-12-07T05:29:17;11.77;;;6.82;;
49123;SDS011;48506;48.202;16.274;2022-12-07T05:31:43;10.00;;;5.38;;
49123;SDS011;48506;48.202;16.274;2022-12-07T05:34:10;13.25;;;6.00;;
49123;SDS011;48506;48.202;16.274;2022-12-07T05:36:37;11.68;;;7.03;;
49123;SDS011;48506;48.202;16.274;2022-12-07T05:39:03;11.15;;;6.00;;
49123;SDS011;48506;48.202;16.274;2022-12-07T05:41:29;12.52;;;6.97;;
49123;SDS011;48506;48.202;16.274;2022-12-07T05:44:19;11.23;;;6.18;;
49123;SDS011;48506;48.202;16.274;2022-12-07T05:46:44;10.45;;;5.82;;
49123;SDS011;48506;48.202;16.274;2022-12-07T05:49:10;13.18;;;7.25;;
49123;SDS011;48506;48.202;16.274;2022-12-07T05:51:36;10.98;;;5.88;;
49123;SDS011;48506;48.202;16.274;2022-12-07T05:54:02;12.57;;;6.82;;
49123;SDS011;48506;48.202;16.274;2022-12-07T05:56:28;11.95;;;6.07;;
49123;SDS011;48506;48.202;16.274;2022-12-07T05:58:54;9.00;;;5.32;;
49123;SDS011;48506;48.202;16.274;2022-12-07T06:01:39;12.80;;;6.68;;
49123;SDS011;48506;48.202;16.274;2022-12-07T06:04:05;9.35;;;5.50;;
49123;SDS011;48506;48.202;16.274;2022-12-07T06:06:32;9.68;;;5.90;;
49123;SDS011;48506;48.202;16.274;2022-12-07T06:08:57;12.98;;;5.47;;
49123;SDS011;48506;48.202;16.274;2022-12-07T06:11:23;12.63;;;6.15;;
49123;SDS011;48506;48.202;16.274;2022-12-07T06:14:08;10.52;;;6.05;;
49123;SDS011;48506;48.202;16.274;2022-12-07T06:16:34;12.30;;;6.65;;
49123;SDS011;48506;48.202;16.274;2022-12-07T06:19:00;10.88;;;5.95;;
49123;SDS011;48506;48.202;16.274;2022-12-07T06:21:26;9.80;;;5.05;;
49123;SDS011;48506;48.202;16.274;2022-12-07T06:23:52;12.25;;;6.65;;
49123;SDS011;48506;48.202;16.274;2022-12-07T06:26:18;9.80;;;6.22;;
49123;SDS011;48506;48.202;16.274;2022-12-07T06:28:45;9.98;;;5.65;;
49123;SDS011;48506;48.202;16.274;2022-12-07T06:31:11;9.98;;;5.78;;
49123;SDS011;48506;48.202;16.274;2022-12-07T06:33:36;11.40;;;5.55;;
49123;SDS011;48506;48.202;16.274;2022-12-07T06:36:03;10.65;;;6.00;;
49123;SDS011;48506;48.202;16.274;2022-12-07T06:38:29;9.65;;;5.75;;
49123;SDS011;48506;48.202;16.274;2022-12-07T06:40:55;11.00;;;5.65;;
49123;SDS011;48506;48.202;16.274;2022-12-07T06:43:21;9.10;;;5.30;;
49123;SDS011;48506;48.202;16.274;2022-12-07T06:45:47;10.10;;;5.72;;
49123;SDS011;48506;48.202;16.274;2022-12-07T06:48:13;9.13;;;5.18;;
49123;SDS011;48506;48.202;16.274;2022-12-07T06:50:40;10.85;;;6.30;;
49123;SDS011;48506;48.202;16.274;2022-12-07T06:53:05;14.90;;;7.15;;
49123;SDS011;48506;48.202;16.274;2022-12-07T06:55:32;9.82;;;6.15;;
49123;SDS011;48506;48.202;16.274;2022-12-07T06:57:58;10.88;;;5.72;;
49123;SDS011;48506;48.202;16.274;2022-12-07T07:00:24;10.43;;;4.63;;
49123;SDS011;48506;48.202;16.274;2022-12-07T07:02:50;11.10;;;5.15;;
49123;SDS011;48506;48.202;16.274;2022-12-07T07:05:16;12.35;;;5.55;;
49123;SDS011;48506;48.202;16.274;2022-12-07T07:07:42;11.32;;;5.25;;
49123;SDS011;48506;48.202;16.274;2022-12-07T07:10:08;8.63;;;5.40;;
49123;SDS011;48506;48.202;16.274;2022-12-07T07:12:36;11.05;;;5.80;;
49123;SDS011;48506;48.202;16.274;2022-12-07T07:15:03;9.82;;;5.63;;
49123;SDS011;48506;48.202;16.274;2022-12-07T07:17:29;6.93;;;4.65;;
49123;SDS011;48506;48.202;16.274;2022-12-07T07:19:55;8.70;;;5.05;;
49123;SDS011;48506;48.202;16.274;2022-12-07T07:22:20;8.60;;;5.47;;
49123;SDS011;48506;48.202;16.274;2022-12-07T07:24:46;9.93;;;5.43;;
49123;SDS011;48506;48.202;16.274;2022-12-07T07:27:12;9.02;;;4.80;;
49123;SDS011;48506;48.202;16.274;2022-12-07T07:29:38;9.68;;;5.00;;
49123;SDS011;48506;48.202;16.274;2022-12-07T07:32:04;10.70;;;5.80;;
49123;SDS011;48506;48.202;16.274;2022-12-07T07:34:30;9.65;;;5.63;;
49123;SDS011;48506;48.202;16.274;2022-12-07T07:36:56;7.30;;;4.85;;
49123;SDS011;48506;48.202;16.274;2022-12-07T07:39:22;9.80;;;5.55;;
49123;SDS011;48506;48.202;16.274;2022-12-07T07:41:48;8.20;;;5.03;;
49123;SDS011;48506;48.202;16.274;2022-12-07T07:44:13;8.25;;;5.25;;
49123;SDS011;48506;48.202;16.274;2022-12-07T07:46:39;8.68;;;5.28;;
49123;SDS011;48506;48.202;16.274;2022-12-07T07:49:05;10.48;;;6.13;;
49123;SDS011;48506;48.202;16.274;2022-12-07T07:51:31;8.13;;;4.85;;
49123;SDS011;48506;48.202;16.274;2022-12-07T07:53:57;9.68;;;5.80;;
49123;SDS011;48506;48.202;16.274;2022-12-07T07:56:23;12.57;;;6.13;;
49123;SDS011;48506;48.202;16.274;2022-12-07T07:58:51;8.63;;;5.22;;
49123;SDS011;48506;48.202;16.274;2022-12-07T08:01:18;8.88;;;5.60;;
49123;SDS011;48506;48.202;16.274;2022-12-07T08:03:45;8.93;;;6.13;;
49123;SDS011;48506;48.202;16.274;2022-12-07T08:06:12;10.80;;;5.65;;
49123;SDS011;48506;48.202;16.274;2022-12-07T08:08:38;11.95;;;6.60;;
49123;SDS011;48506;48.202;16.274;2022-12-07T08:11:05;10.93;;;5.38;;
49123;SDS011;48506;48.202;16.274;2022-12-07T08:13:31;9.10;;;5.25;;
49123;SDS011;48506;48.202;16.274;2022-12-07T08:15:57;7.85;;;5.13;;
49123;SDS011;48506;48.202;16.274;2022-12-07T08:18:23;9.13;;;5.15;;
49123;SDS011;48506;48.202;16.274;2022-12-07T08:20:49;13.00;;;5.93;;
49123;SDS011;48506;48.202;16.274;2022-12-07T08:23:14;10.38;;;5.25;;
49123;SDS011;48506;48.202;16.274;2022-12-07T08:25:40;8.30;;;4.72;;
49123;SDS011;48506;48.202;16.274;2022-12-07T08:28:06;10.65;;;6.13;;
49123;SDS011;48506;48.202;16.274;2022-12-07T08:30:32;11.68;;;6.22;;
49123;SDS011;48506;48.202;16.274;2022-12-07T08:32:59;8.95;;;4.90;;
49123;SDS011;48506;48.202;16.274;2022-12-07T08:35:25;9.98;;;5.93;;
49123;SDS011;48506;48.202;16.274;2022-12-07T08:37:51;11.95;;;6.28;;
49123;SDS011;48506;48.202;16.274;2022-12-07T08:40:17;9.98;;;6.10;;
49123;SDS011;48506;48.202;16.274;2022-12-07T08:42:47;8.60;;;4.80;;
49123;SDS011;48506;48.202;16.274;2022-12-07T08:45:15;7.25;;;4.70;;
49123;SDS011;48506;48.202;16.274;2022-12-07T08:47:46;6.88;;;4.30;;
49123;SDS011;48506;48.202;16.274;2022-12-07T08:50:23;8.35;;;4.85;;
49123;SDS011;48506;48.202;16.274;2022-12-07T08:52:52;8.00;;;4.85;;
49123;SDS011;48506;48.202;16.274;2022-12-07T08:55:20;6.40;;;4.43;;
49123;SDS011;48506;48.202;16.274;2022-12-07T08:57:47;7.28;;;4.35;;
49123;SDS011;48506;48.202;16.274;2022-12-07T09:00:15;9.50;;;5.22;;
49123;SDS011;48506;48.202;16.274;2022-12-07T09:02:44;8.27;;;5.22;;
49123;SDS011;48506;48.202;16.274;2022-12-07T09:05:12;9.55;;;5.78;;
49123;SDS011;48506;48.202;16.274;2022-12-07T09:07:40;9.73;;;5.05;;
49123;SDS011;48506;48.202;16.274;2022-12-07T09:10:08;8.40;;;5.03;;
49123;SDS011;48506;48.202;16.274;2022-12-07T09:12:34;10.15;;;5.03;;
49123;SDS011;48506;48.202;16.274;2022-12-07T09:15:00;7.63;;;4.93;;
49123;SDS011;48506;48.202;16.274;2022-12-07T09:17:31;8.23;;;5.32;;
49123;SDS011;48506;48.202;16.274;2022-12-07T09:19:58;7.88;;;4.88;;
49123;SDS011;48506;48.202;16.274;2022-12-07T09:22:27;10.75;;;5.95;;
49123;SDS011;48506;48.202;16.274;2022-12-07T09:24:57;6.70;;;3.60;;
49123;SDS011;48506;48.202;16.274;2022-12-07T09:27:24;10.80;;;6.03;;
49123;SDS011;48506;48.202;16.274;2022-12-07T09:29:50;8.52;;;5.82;;
49123;SDS011;48506;48.202;16.274;2022-12-07T09:32:16;10.23;;;6.40;;
49123;SDS011;48506;48.202;16.274;2022-12-07T09:34:42;7.90;;;5.40;;
49123;SDS011;48506;48.202;16.274;2022-12-07T09:37:09;8.82;;;5.80;;
49123;SDS011;48506;48.202;16.274;2022-12-07T09:39:37;10.38;;;5.88;;
49123;SDS011;48506;48.202;16.274;2022-12-07T09:42:05;9.57;;;6.10;;
49123;SDS011;48506;48.202;16.274;2022-12-07T09:44:33;9.48;;;5.97;;
49123;SDS011;48506;48.202;16.274;2022-12-07T09:47:01;9.93;;;6.57;;
49123;SDS011;48506;48.202;16.274;2022-12-07T09:49:29;7.90;;;5.53;;
49123;SDS011;48506;48.202;16.274;2022-12-07T09:52:01;5.45;;;3.85;;
49123;SDS011;48506;48.202;16.274;2022-12-07T09:54:35;9.05;;;5.75;;
49123;SDS011;48506;48.202;16.274;2022-12-07T09:57:05;10.23;;;4.97;;
49123;SDS011;48506;48.202;16.274;2022-12-07T09:59:33;10.30;;;5.30;;
49123;SDS011;48506;48.202;16.274;2022-12-07T10:02:04;8.15;;;5.13;;
49123;SDS011;48506;48.202;16.274;2022-12-07T10:04:46;7.57;;;5.05;;
49123;SDS011;48506;48.202;16.274;2022-12-07T10:07:12;8.88;;;5.25;;
49123;SDS011;48506;48.202;16.274;2022-12-07T10:09:38;8.25;;;5.30;;
49123;SDS011;48506;48.202;16.274;2022-12-07T10:12:06;9.23;;;5.90;;
49123;SDS011;48506;48.202;16.274;2022-12-07T10:14:36;7.35;;;3.70;;
49123;SDS011;48506;48.202;16.274;2022-12-07T10:20:17;5.97;;;3.72;;
49123;SDS011;48506;48.202;16.274;2022-12-07T10:22:59;6.00;;;3.35;;
49123;SDS011;48506;48.202;16.274;2022-12-07T10:25:31;8.40;;;5.03;;
49123;SDS011;48506;48.202;16.274;2022-12-07T10:33:34;9.18;;;4.93;;
49123;SDS011;48506;48.202;16.274;2022-12-07T10:36:25;5.57;;;4.25;;
49123;SDS011;48506;48.202;16.274;2022-12-07T10:41:29;20.67;;;5.35;;
49123;SDS011;48506;48.202;16.274;2022-12-07T10:43:56;8.40;;;4.68;;
49123;SDS011;48506;48.202;16.274;2022-12-07T10:46:26;5.93;;;3.65;;
49123;SDS011;48506;48.202;16.274;2022-12-07T10:52:31;7.25;;;5.05;;
49123;SDS011;48506;48.202;16.274;2022-12-07T11:11:34;7.15;;;4.75;;
49123;SDS011;48506;48.202;16.274;2022-12-07T11:19:41;5.70;;;4.35;;
49123;SDS011;48506;48.202;16.274;2022-12-07T11:25:13;9.15;;;4.65;;
49123;SDS011;48506;48.202;16.274;2022-12-07T11:28:02;9.23;;;4.90;;
49123;SDS011;48506;48.202;16.274;2022-12-07T11:33:45;9.00;;;5.18;;
49123;SDS011;48506;48.202;16.274;2022-12-07T11:39:03;7.90;;;4.97;;
49123;SDS011;48506;48.202;16.274;2022-12-07T11:41:37;6.03;;;3.35;;
49123;SDS011;48506;48.202;16.274;2022-12-07T11:52:58;9.35;;;4.78;;
49123;SDS011;48506;48.202;16.274;2022-12-07T11:55:43;6.65;;;4.05;;
49123;SDS011;48506;48.202;16.274;2022-12-07T12:04:47;6.95;;;4.47;;
49123;SDS011;48506;48.202;16.274;2022-12-07T12:06:56;6.18;;;3.78;;
49123;SDS011;48506;48.202;16.274;2022-12-07T12:09:24;5.75;;;3.55;;
49123;SDS011;48506;48.202;16.274;2022-12-07T12:21:09;5.28;;;3.38;;
49123;SDS011;48506;48.202;16.274;2022-12-07T12:23:46;7.38;;;4.18;;
49123;SDS011;48506;48.202;16.274;2022-12-07T12:26:22;6.45;;;4.32;;
49123;SDS011;48506;48.202;16.274;2022-12-07T12:28:52;8.07;;;4.45;;
49123;SDS011;48506;48.202;16.274;2022-12-07T12:31:37;5.68;;;4.03;;
49123;SDS011;48506;48.202;16.274;2022-12-07T12:34:29;6.60;;;4.22;;
49123;SDS011;48506;48.202;16.274;2022-12-07T12:42:56;4.78;;;3.45;;
49123;SDS011;48506;48.202;16.274;2022-12-07T12:45:30;5.80;;;3.90;;
49123;SDS011;48506;48.202;16.274;2022-12-07T12:48:01;6.85;;;3.63;;
49123;SDS011;48506;48.202;16.274;2022-12-07T12:50:50;6.55;;;3.92;;
49123;SDS011;48506;48.202;16.274;2022-12-07T12:54:03;6.03;;;4.40;;
49123;SDS011;48506;48.202;16.274;2022-12-07T12:56:35;7.50;;;4.53;;
49123;SDS011;48506;48.202;16.274;2022-12-07T12:59:43;9.27;;;4.47;;
49123;SDS011;48506;48.202;16.274;2022-12-07T13:13:39;8.65;;;4.18;;
49123;SDS011;48506;48.202;16.274;2022-12-07T13:15:44;6.40;;;4.03;;
49123;SDS011;48506;48.202;16.274;2022-12-07T13:18:40;7.40;;;3.93;;
49123;SDS011;48506;48.202;16.274;2022-12-07T13:31:46;9.27;;;5.47;;
49123;SDS011;48506;48.202;16.274;2022-12-07T13:37:01;8.52;;;4.53;;
49123;SDS011;48506;48.202;16.274;2022-12-07T13:39:44;5.55;;;3.90;;
49123;SDS011;48506;48.202;16.274;2022-12-07T13:42:32;5.70;;;4.05;;
49123;SDS011;48506;48.202;16.274;2022-12-07T13:45:13;6.35;;;4.18;;
49123;SDS011;48506;48.202;16.274;2022-12-07T13:48:08;6.88;;;4.57;;
49123;SDS011;48506;48.202;16.274;2022-12-07T13:50:41;8.50;;;4.72;;
49123;SDS011;48506;48.202;16.274;2022-12-07T13:53:11;6.97;;;4.95;;
49123;SDS011;48506;48.202;16.274;2022-12-07T13:55:44;5.40;;;3.63;;
49123;SDS011;48506;48.202;16.274;2022-12-07T13:58:11;8.48;;;5.30;;
49123;SDS011;48506;48.202;16.274;2022-12-07T14:00:39;6.55;;;3.60;;
49123;SDS011;48506;48.202;16.274;2022-12-07T14:05:38;6.88;;;4.75;;
49123;SDS011;48506;48.202;16.274;2022-12-07T14:13:32;9.10;;;4.80;;
49123;SDS011;48506;48.202;16.274;2022-12-07T14:16:27;7.43;;;4.78;;
49123;SDS011;48506;48.202;16.274;2022-12-07T14:19:02;6.90;;;4.90;;
49123;SDS011;48506;48.202;16.274;2022-12-07T14:21:31;7.30;;;3.90;;
49123;SDS011;48506;48.202;16.274;2022-12-07T14:24:02;6.93;;;4.78;;
49123;SDS011;48506;48.202;16.274;2022-12-07T14:26:42;8.38;;;5.32;;
49123;SDS011;48506;48.202;16.274;2022-12-07T14:31:52;9.32;;;5.63;;
49123;SDS011;48506;48.202;16.274;2022-12-07T14:34:20;10.95;;;5.63;;
49123;SDS011;48506;48.202;16.274;2022-12-07T14:36:46;11.13;;;5.20;;
49123;SDS011;48506;48.202;16.274;2022-12-07T14:39:12;11.25;;;5.85;;
49123;SDS011;48506;48.202;16.274;2022-12-07T14:41:38;7.85;;;5.07;;
49123;SDS011;48506;48.202;16.274;2022-12-07T14:44:17;9.10;;;5.68;;
49123;SDS011;48506;48.202;16.274;2022-12-07T14:46:45;9.02;;;5.50;;
49123;SDS011;48506;48.202;16.274;2022-12-07T14:49:12;9.75;;;5.47;;
49123;SDS011;48506;48.202;16.274;2022-12-07T14:51:39;7.53;;;5.03;;
49123;SDS011;48506;48.202;16.274;2022-12-07T14:54:07;10.10;;;5.47;;
49123;SDS011;48506;48.202;16.274;2022-12-07T14:56:45;11.45;;;5.95;;
49123;SDS011;48506;48.202;16.274;2022-12-07T14:59:16;10.15;;;5.22;;
49123;SDS011;48506;48.202;16.274;2022-12-07T15:01:43;10.27;;;6.35;;
49123;SDS011;48506;48.202;16.274;2022-12-07T15:04:09;9.05;;;5.75;;
49123;SDS011;48506;48.202;16.274;2022-12-07T15:06:35;14.25;;;6.05;;
49123;SDS011;48506;48.202;16.274;2022-12-07T15:09:02;10.27;;;5.95;;
49123;SDS011;48506;48.202;16.274;2022-12-07T15:11:29;11.25;;;5.32;;
49123;SDS011;48506;48.202;16.274;2022-12-07T15:13:55;8.80;;;5.55;;
49123;SDS011;48506;48.202;16.274;2022-12-07T15:16:37;10.77;;;6.30;;
49123;SDS011;48506;48.202;16.274;2022-12-07T15:19:05;12.75;;;6.25;;
49123;SDS011;48506;48.202;16.274;2022-12-07T15:21:35;10.75;;;6.47;;
49123;SDS011;48506;48.202;16.274;2022-12-07T15:24:01;13.55;;;7.07;;
49123;SDS011;48506;48.202;16.274;2022-12-07T15:26:28;10.90;;;6.22;;
49123;SDS011;48506;48.202;16.274;2022-12-07T15:28:54;11.20;;;6.43;;
49123;SDS011;48506;48.202;16.274;2022-12-07T15:31:19;13.70;;;7.28;;
49123;SDS011;48506;48.202;16.274;2022-12-07T15:33:45;10.32;;;6.88;;
49123;SDS011;48506;48.202;16.274;2022-12-07T15:36:19;18.98;;;7.00;;
49123;SDS011;48506;48.202;16.274;2022-12-07T15:38:50;11.07;;;6.47;;
49123;SDS011;48506;48.202;16.274;2022-12-07T15:41:16;13.38;;;7.22;;
49123;SDS011;48506;48.202;16.274;2022-12-07T15:43:43;10.77;;;6.55;;
49123;SDS011;48506;48.202;16.274;2022-12-07T15:46:30;13.57;;;6.75;;
49123;SDS011;48506;48.202;16.274;2022-12-07T15:49:09;13.77;;;7.20;;
49123;SDS011;48506;48.202;16.274;2022-12-07T15:51:41;13.07;;;6.95;;
49123;SDS011;48506;48.202;16.274;2022-12-07T15:54:11;13.52;;;6.43;;
49123;SDS011;48506;48.202;16.274;2022-12-07T15:56:45;13.05;;;6.40;;
49123;SDS011;48506;48.202;16.274;2022-12-07T15:59:11;12.63;;;6.35;;
49123;SDS011;48506;48.202;16.274;2022-12-07T16:01:37;13.55;;;6.38;;
49123;SDS011;48506;48.202;16.274;2022-12-07T16:04:03;13.07;;;7.25;;
49123;SDS011;48506;48.202;16.274;2022-12-07T16:06:29;13.38;;;6.47;;
49123;SDS011;48506;48.202;16.274;2022-12-07T16:08:56;12.95;;;7.07;;
49123;SDS011;48506;48.202;16.274;2022-12-07T16:11:21;11.98;;;6.97;;
49123;SDS011;48506;48.202;16.274;2022-12-07T16:13:47;14.90;;;7.18;;
49123;SDS011;48506;48.202;16.274;2022-12-07T16:16:14;16.38;;;9.13;;
49123;SDS011;48506;48.202;16.274;2022-12-07T16:18:42;14.48;;;7.63;;
49123;SDS011;48506;48.202;16.274;2022-12-07T16:21:09;11.93;;;6.22;;
49123;SDS011;48506;48.202;16.274;2022-12-07T16:23:34;11.63;;;6.15;;
49123;SDS011;48506;48.202;16.274;2022-12-07T16:26:20;12.93;;;6.80;;
49123;SDS011;48506;48.202;16.274;2022-12-07T16:28:50;15.88;;;7.55;;
49123;SDS011;48506;48.202;16.274;2022-12-07T16:31:18;14.32;;;7.70;;
49123;SDS011;48506;48.202;16.274;2022-12-07T16:33:49;12.38;;;6.85;;
49123;SDS011;48506;48.202;16.274;2022-12-07T16:36:16;16.80;;;7.22;;
49123;SDS011;48506;48.202;16.274;2022-12-07T16:38:42;12.25;;;6.78;;
49123;SDS011;48506;48.202;16.274;2022-12-07T16:41:09;14.57;;;7.57;;
49123;SDS011;48506;48.202;16.274;2022-12-07T16:43:36;16.17;;;8.15;;
49123;SDS011;48506;48.202;16.274;2022-12-07T16:46:03;13.18;;;7.63;;
49123;SDS011;48506;48.202;16.274;2022-12-07T16:48:29;15.48;;;8.35;;
49123;SDS011;48506;48.202;16.274;2022-12-07T16:50:55;10.85;;;6.72;;
49123;SDS011;48506;48.202;16.274;2022-12-07T16:53:22;14.48;;;7.78;;
49123;SDS011;48506;48.202;16.274;2022-12-07T16:55:49;14.05;;;7.53;;
49123;SDS011;48506;48.202;16.274;2022-12-07T16:58:16;17.52;;;8.43;;
49123;SDS011;48506;48.202;16.274;2022-12-07T17:00:43;16.60;;;8.57;;
49123;SDS011;48506;48.202;16.274;2022-12-07T17:03:10;14.82;;;7.97;;
49123;SDS011;48506;48.202;16.274;2022-12-07T17:05:38;15.93;;;7.47;;
49123;SDS011;48506;48.202;16.274;2022-12-07T17:10:34;12.57;;;7.47;;
49123;SDS011;48506;48.202;16.274;2022-12-07T17:13:02;14.00;;;7.38;;